sensor_id;sensor_type;location;lat;lon;timestamp;pressure;altitude;pressure_sealevel;temperature;humidity
20752;BME280;10536;51.582;5.016;2022-10-31T00:04:29;102063.03;;;16.79;100.00
20752;BME280;10536;51.582;5.016;2022-10-31T00:09:30;102073.59;;;16.74;100.00
20752;BME280;10536;51.582;5.016;2022-10-31T00:14:30;102072.38;;;16.94;100.00
20752;BME280;10536;51.582;5.016;2022-10-31T00:19:31;102086.81;;;16.65;100.00
20752;BME280;10536;51.582;5.016;2022-10-31T00:24:31;102084.06;;;16.73;100.00
20752;BME280;10536;51.582;5.016;2022-10-31T00:29:31;102091.06;;;16.71;100.00
20752;BME280;10536;51.582;5.016;2022-10-31T00:34:32;102086.63;;;16.76;100.00
20752;BME280;10536;51.582;5.016;2022-10-31T00:39:32;102087.53;;;16.24;100.00
20752;BME280;10536;51.582;5.016;2022-10-31T00:44:33;102077.84;;;16.30;100.00
20752;BME280;10536;51.582;5.016;2022-10-31T00:49:33;102064.66;;;16.38;100.00
20752;BME280;10536;51.582;5.016;2022-10-31T00:54:33;102067.22;;;16.43;100.00
20752;BME280;10536;51.582;5.016;2022-10-31T00:59:34;102048.84;;;16.47;100.00
20752;BME280;10536;51.582;5.016;2022-10-31T01:04:35;102048.84;;;16.47;100.00
20752;BME280;10536;51.582;5.016;2022-10-31T01:09:35;102046.88;;;16.60;100.00
20752;BME280;10536;51.582;5.016;2022-10-31T01:14:36;102055.44;;;16.18;100.00
20752;BME280;10536;51.582;5.016;2022-10-31T01:19:36;102059.56;;;16.30;100.00
20752;BME280;10536;51.582;5.016;2022-10-31T01:24:37;102051.00;;;16.24;100.00
20752;BME280;10536;51.582;5.016;2022-10-31T01:29:37;102058.72;;;15.75;100.00
20752;BME280;10536;51.582;5.016;2022-10-31T01:34:38;102060.44;;;15.78;100.00
20752;BME280;10536;51.582;5.016;2022-10-31T01:39:39;102054.22;;;15.87;100.00
20752;BME280;10536;51.582;5.016;2022-10-31T01:49:40;102058.66;;;15.13;100.00
20752;BME280;10536;51.582;5.016;2022-10-31T01:54:45;102046.44;;;15.18;100.00
20752;BME280;10536;51.582;5.016;2022-10-31T01:59:49;102037.66;;;15.27;100.00
20752;BME280;10536;51.582;5.016;2022-10-31T02:04:52;102044.50;;;15.34;100.00
20752;BME280;10536;51.582;5.016;2022-10-31T02:09:53;102033.13;;;15.38;100.00
20752;BME280;10536;51.582;5.016;2022-10-31T02:14:59;102033.97;;;15.40;100.00
20752;BME280;10536;51.582;5.016;2022-10-31T02:20:14;102041.56;;;15.57;100.00
20752;BME280;10536;51.582;5.016;2022-10-31T02:41:32;102035.69;;;14.75;100.00
20752;BME280;10536;51.582;5.016;2022-10-31T02:51:43;102024.19;;;14.91;100.00
20752;BME280;10536;51.582;5.016;2022-10-31T02:56:44;102033.91;;;14.77;100.00
20752;BME280;10536;51.582;5.016;2022-10-31T03:02:06;102040.91;;;14.73;100.00
20752;BME280;10536;51.582;5.016;2022-10-31T03:12:48;102033.34;;;14.47;100.00
20752;BME280;10536;51.582;5.016;2022-10-31T03:18:09;102035.16;;;14.37;100.00
20752;BME280;10536;51.582;5.016;2022-10-31T03:23:15;102033.56;;;14.19;100.00
20752;BME280;10536;51.582;5.016;2022-10-31T03:28:22;102035.13;;;14.40;100.00
20752;BME280;10536;51.582;5.016;2022-10-31T03:33:27;102041.16;;;14.44;100.00
20752;BME280;10536;51.582;5.016;2022-10-31T03:38:31;102040.19;;;14.57;100.00
20752;BME280;10536;51.582;5.016;2022-10-31T03:43:42;102047.19;;;14.49;100.00
20752;BME280;10536;51.582;5.016;2022-10-31T03:48:47;102047.28;;;14.40;100.00
20752;BME280;10536;51.582;5.016;2022-10-31T03:53:55;102036.81;;;14.43;100.00
20752;BME280;10536;51.582;5.016;2022-10-31T04:03:57;102039.63;;;14.23;100.00
20752;BME280;10536;51.582;5.016;2022-10-31T04:09:00;102034.56;;;14.05;100.00
20752;BME280;10536;51.582;5.016;2022-10-31T04:14:05;102037.19;;;14.00;100.00
20752;BME280;10536;51.582;5.016;2022-10-31T04:19:18;102046.03;;;13.79;100.00
20752;BME280;10536;51.582;5.016;2022-10-31T04:24:29;102044.25;;;13.84;100.00
20752;BME280;10536;51.582;5.016;2022-10-31T04:29:41;102039.78;;;14.01;100.00
20752;BME280;10536;51.582;5.016;2022-10-31T04:34:52;102049.44;;;13.89;100.00
20752;BME280;10536;51.582;5.016;2022-10-31T04:40:02;102035.59;;;13.83;100.00
20752;BME280;10536;51.582;5.016;2022-10-31T04:45:14;102031.78;;;14.25;100.00
20752;BME280;10536;51.582;5.016;2022-10-31T04:50:27;102024.63;;;14.48;100.00
20752;BME280;10536;51.582;5.016;2022-10-31T04:55:36;102027.38;;;14.33;100.00
20752;BME280;10536;51.582;5.016;2022-10-31T05:00:53;102025.53;;;14.44;100.00
20752;BME280;10536;51.582;5.016;2022-10-31T05:06:07;102025.53;;;14.46;100.00
20752;BME280;10536;51.582;5.016;2022-10-31T05:11:15;102009.84;;;14.50;100.00
20752;BME280;10536;51.582;5.016;2022-10-31T05:16:26;102008.09;;;14.54;100.00
20752;BME280;10536;51.582;5.016;2022-10-31T05:21:41;102007.16;;;14.63;100.00
20752;BME280;10536;51.582;5.016;2022-10-31T05:26:53;101998.22;;;13.98;100.00
20752;BME280;10536;51.582;5.016;2022-10-31T05:32:02;101993.03;;;13.92;100.00
20752;BME280;10536;51.582;5.016;2022-10-31T05:37:10;102004.50;;;13.68;100.00
20752;BME280;10536;51.582;5.016;2022-10-31T05:42:24;102008.75;;;13.81;100.00
20752;BME280;10536;51.582;5.016;2022-10-31T05:47:35;102010.44;;;13.87;100.00
20752;BME280;10536;51.582;5.016;2022-10-31T05:52:46;102002.75;;;13.72;100.00
20752;BME280;10536;51.582;5.016;2022-10-31T05:57:57;101995.72;;;13.83;100.00
20752;BME280;10536;51.582;5.016;2022-10-31T06:03:09;101997.19;;;14.16;100.00
20752;BME280;10536;51.582;5.016;2022-10-31T06:08:23;101992.69;;;14.35;100.00
20752;BME280;10536;51.582;5.016;2022-10-31T06:13:31;101992.72;;;14.29;100.00
20752;BME280;10536;51.582;5.016;2022-10-31T06:18:41;101986.63;;;14.32;100.00
20752;BME280;10536;51.582;5.016;2022-10-31T06:23:51;101981.34;;;14.38;100.00
20752;BME280;10536;51.582;5.016;2022-10-31T06:29:00;102000.34;;;14.48;100.00
20752;BME280;10536;51.582;5.016;2022-10-31T06:34:16;101988.31;;;14.36;100.00
20752;BME280;10536;51.582;5.016;2022-10-31T06:39:30;101990.78;;;14.51;100.00
20752;BME280;10536;51.582;5.016;2022-10-31T06:44:40;101994.88;;;14.74;100.00
20752;BME280;10536;51.582;5.016;2022-10-31T06:49:52;101985.94;;;14.95;100.00
20752;BME280;10536;51.582;5.016;2022-10-31T06:55:05;101999.53;;;15.18;100.00
20752;BME280;10536;51.582;5.016;2022-10-31T07:00:19;101999.88;;;14.92;100.00
20752;BME280;10536;51.582;5.016;2022-10-31T07:05:33;101995.22;;;15.17;100.00
20752;BME280;10536;51.582;5.016;2022-10-31T07:10:43;101991.91;;;15.05;100.00
20752;BME280;10536;51.582;5.016;2022-10-31T07:16:03;101995.25;;;15.14;100.00
20752;BME280;10536;51.582;5.016;2022-10-31T07:21:15;101997.75;;;15.22;100.00
20752;BME280;10536;51.582;5.016;2022-10-31T07:26:30;101997.66;;;15.27;100.00
20752;BME280;10536;51.582;5.016;2022-10-31T07:31:42;102002.47;;;14.92;100.00
20752;BME280;10536;51.582;5.016;2022-10-31T07:36:58;102004.72;;;15.20;100.00
20752;BME280;10536;51.582;5.016;2022-10-31T07:42:16;101997.84;;;15.13;100.00
20752;BME280;10536;51.582;5.016;2022-10-31T07:47:27;102000.66;;;15.61;100.00
20752;BME280;10536;51.582;5.016;2022-10-31T07:52:41;102010.78;;;15.83;100.00
20752;BME280;10536;51.582;5.016;2022-10-31T07:58:00;102004.38;;;16.04;100.00
20752;BME280;10536;51.582;5.016;2022-10-31T08:03:13;102000.66;;;16.17;100.00
20752;BME280;10536;51.582;5.016;2022-10-31T08:08:23;102002.78;;;16.43;100.00
20752;BME280;10536;51.582;5.016;2022-10-31T08:13:29;102004.09;;;16.66;100.00
20752;BME280;10536;51.582;5.016;2022-10-31T08:18:39;101999.72;;;17.11;100.00
20752;BME280;10536;51.582;5.016;2022-10-31T08:23:52;101999.22;;;17.34;100.00
20752;BME280;10536;51.582;5.016;2022-10-31T08:29:04;101983.38;;;17.02;100.00
20752;BME280;10536;51.582;5.016;2022-10-31T08:34:15;101976.16;;;17.13;100.00
20752;BME280;10536;51.582;5.016;2022-10-31T08:39:28;101972.94;;;17.39;100.00
20752;BME280;10536;51.582;5.016;2022-10-31T08:44:38;101955.13;;;17.55;100.00
20752;BME280;10536;51.582;5.016;2022-10-31T08:49:50;101964.91;;;17.83;100.00
20752;BME280;10536;51.582;5.016;2022-10-31T08:55:01;101978.97;;;17.79;100.00
20752;BME280;10536;51.582;5.016;2022-10-31T09:00:13;101985.63;;;17.93;100.00
20752;BME280;10536;51.582;5.016;2022-10-31T09:05:27;101973.75;;;18.14;100.00
20752;BME280;10536;51.582;5.016;2022-10-31T09:10:38;101964.09;;;18.17;100.00
20752;BME280;10536;51.582;5.016;2022-10-31T09:15:47;101944.81;;;18.50;100.00
20752;BME280;10536;51.582;5.016;2022-10-31T09:21:02;101947.50;;;18.47;100.00
20752;BME280;10536;51.582;5.016;2022-10-31T09:26:17;101935.19;;;18.51;100.00
20752;BME280;10536;51.582;5.016;2022-10-31T09:31:30;101919.25;;;18.88;100.00
20752;BME280;10536;51.582;5.016;2022-10-31T09:36:49;101917.25;;;19.25;100.00
20752;BME280;10536;51.582;5.016;2022-10-31T09:42:15;101904.41;;;19.44;100.00
20752;BME280;10536;51.582;5.016;2022-10-31T09:58:09;101872.50;;;19.56;100.00
20752;BME280;10536;51.582;5.016;2022-10-31T10:03:45;101856.00;;;20.28;100.00
20752;BME280;10536;51.582;5.016;2022-10-31T10:08:57;101855.91;;;19.56;100.00
20752;BME280;10536;51.582;5.016;2022-10-31T10:14:18;101855.31;;;19.98;100.00
20752;BME280;10536;51.582;5.016;2022-10-31T10:25:08;101856.88;;;20.03;100.00
20752;BME280;10536;51.582;5.016;2022-10-31T10:30:51;101862.38;;;20.44;100.00
20752;BME280;10536;51.582;5.016;2022-10-31T10:36:06;101877.44;;;19.65;100.00
20752;BME280;10536;51.582;5.016;2022-10-31T10:41:26;101871.34;;;19.90;100.00
20752;BME280;10536;51.582;5.016;2022-10-31T10:46:53;101865.75;;;20.48;100.00
20752;BME280;10536;51.582;5.016;2022-10-31T10:52:42;101839.97;;;20.58;100.00
20752;BME280;10536;51.582;5.016;2022-10-31T10:58:08;101832.53;;;20.23;100.00
20752;BME280;10536;51.582;5.016;2022-10-31T11:03:18;101820.28;;;20.22;100.00
20752;BME280;10536;51.582;5.016;2022-10-31T11:08:34;101794.94;;;20.67;100.00
20752;BME280;10536;51.582;5.016;2022-10-31T11:13:45;101798.78;;;19.89;100.00
20752;BME280;10536;51.582;5.016;2022-10-31T11:24:23;101757.63;;;20.57;100.00
20752;BME280;10536;51.582;5.016;2022-10-31T11:29:36;101759.47;;;20.09;100.00
20752;BME280;10536;51.582;5.016;2022-10-31T11:34:49;101746.75;;;20.22;100.00
20752;BME280;10536;51.582;5.016;2022-10-31T11:40:05;101713.66;;;20.62;100.00
20752;BME280;10536;51.582;5.016;2022-10-31T11:45:37;101716.41;;;20.37;100.00
20752;BME280;10536;51.582;5.016;2022-10-31T11:50:59;101707.25;;;20.90;100.00
20752;BME280;10536;51.582;5.016;2022-10-31T11:56:16;101692.28;;;20.70;100.00
20752;BME280;10536;51.582;5.016;2022-10-31T12:01:51;101672.13;;;20.91;100.00
20752;BME280;10536;51.582;5.016;2022-10-31T12:07:01;101687.41;;;21.03;100.00
20752;BME280;10536;51.582;5.016;2022-10-31T12:12:34;101651.53;;;21.21;100.00
20752;BME280;10536;51.582;5.016;2022-10-31T12:23:39;101638.38;;;21.40;100.00
20752;BME280;10536;51.582;5.016;2022-10-31T12:56:00;101555.03;;;21.96;100.00
20752;BME280;10536;51.582;5.016;2022-10-31T13:06:36;101526.84;;;22.16;100.00
20752;BME280;10536;51.582;5.016;2022-10-31T13:11:48;101512.81;;;22.15;100.00
20752;BME280;10536;51.582;5.016;2022-10-31T13:16:59;101488.56;;;22.08;100.00
20752;BME280;10536;51.582;5.016;2022-10-31T13:22:26;101479.75;;;22.09;100.00
20752;BME280;10536;51.582;5.016;2022-10-31T13:27:51;101474.59;;;22.41;100.00
20752;BME280;10536;51.582;5.016;2022-10-31T13:33:12;101466.34;;;22.32;100.00
20752;BME280;10536;51.582;5.016;2022-10-31T13:48:59;101444.16;;;22.18;100.00
20752;BME280;10536;51.582;5.016;2022-10-31T13:54:45;101431.53;;;22.58;100.00
20752;BME280;10536;51.582;5.016;2022-10-31T14:00:22;101417.09;;;22.32;100.00
20752;BME280;10536;51.582;5.016;2022-10-31T14:10:46;101404.63;;;22.18;100.00
20752;BME280;10536;51.582;5.016;2022-10-31T14:16:04;101392.91;;;22.24;100.00
20752;BME280;10536;51.582;5.016;2022-10-31T14:26:35;101371.84;;;22.24;100.00
20752;BME280;10536;51.582;5.016;2022-10-31T14:31:51;101369.25;;;22.06;100.00
20752;BME280;10536;51.582;5.016;2022-10-31T14:37:18;101363.06;;;22.07;100.00
20752;BME280;10536;51.582;5.016;2022-10-31T14:47:59;101320.53;;;21.98;100.00
20752;BME280;10536;51.582;5.016;2022-10-31T14:53:19;101338.94;;;22.15;100.00
20752;BME280;10536;51.582;5.016;2022-10-31T15:03:45;101316.19;;;21.97;100.00
20752;BME280;10536;51.582;5.016;2022-10-31T15:08:54;101302.94;;;21.98;100.00
20752;BME280;10536;51.582;5.016;2022-10-31T15:14:05;101299.25;;;21.85;100.00
20752;BME280;10536;51.582;5.016;2022-10-31T15:19:27;101288.88;;;21.48;100.00
20752;BME280;10536;51.582;5.016;2022-10-31T15:24:42;101294.81;;;21.17;100.00
20752;BME280;10536;51.582;5.016;2022-10-31T15:29:57;101292.34;;;21.14;100.00
20752;BME280;10536;51.582;5.016;2022-10-31T15:35:09;101290.78;;;20.93;100.00
20752;BME280;10536;51.582;5.016;2022-10-31T15:40:17;101273.03;;;20.79;100.00
20752;BME280;10536;51.582;5.016;2022-10-31T15:45:27;101266.31;;;20.73;100.00
20752;BME280;10536;51.582;5.016;2022-10-31T15:50:37;101272.03;;;20.81;100.00
20752;BME280;10536;51.582;5.016;2022-10-31T15:56:05;101248.38;;;20.99;100.00
20752;BME280;10536;51.582;5.016;2022-10-31T16:01:29;101253.75;;;19.85;100.00
20752;BME280;10536;51.582;5.016;2022-10-31T16:06:40;101248.66;;;20.20;100.00
20752;BME280;10536;51.582;5.016;2022-10-31T16:11:52;101246.16;;;20.36;100.00
20752;BME280;10536;51.582;5.016;2022-10-31T16:17:01;101230.75;;;20.09;100.00
20752;BME280;10536;51.582;5.016;2022-10-31T16:22:14;101227.06;;;20.13;100.00
20752;BME280;10536;51.582;5.016;2022-10-31T16:27:32;101216.56;;;19.75;100.00
20752;BME280;10536;51.582;5.016;2022-10-31T16:39:10;101217.06;;;19.03;100.00
20752;BME280;10536;51.582;5.016;2022-10-31T16:44:21;101207.88;;;19.33;100.00
20752;BME280;10536;51.582;5.016;2022-10-31T16:49:38;101202.53;;;19.16;100.00
20752;BME280;10536;51.582;5.016;2022-10-31T16:54:51;101202.72;;;19.32;100.00
20752;BME280;10536;51.582;5.016;2022-10-31T17:00:04;101202.25;;;19.22;100.00
20752;BME280;10536;51.582;5.016;2022-10-31T17:05:15;101193.31;;;19.26;100.00
20752;BME280;10536;51.582;5.016;2022-10-31T17:10:26;101189.13;;;18.81;100.00
20752;BME280;10536;51.582;5.016;2022-10-31T17:15:42;101163.06;;;18.77;100.00
20752;BME280;10536;51.582;5.016;2022-10-31T17:20:56;101151.00;;;18.94;100.00
20752;BME280;10536;51.582;5.016;2022-10-31T17:26:11;101134.91;;;19.23;100.00
20752;BME280;10536;51.582;5.016;2022-10-31T17:31:32;101128.56;;;19.28;100.00
20752;BME280;10536;51.582;5.016;2022-10-31T17:36:48;101150.56;;;18.85;100.00
20752;BME280;10536;51.582;5.016;2022-10-31T17:41:55;101157.94;;;18.96;100.00
20752;BME280;10536;51.582;5.016;2022-10-31T17:47:15;101149.81;;;19.02;100.00
20752;BME280;10536;51.582;5.016;2022-10-31T17:52:25;101138.81;;;18.93;100.00
20752;BME280;10536;51.582;5.016;2022-10-31T17:57:36;101138.63;;;18.76;100.00
20752;BME280;10536;51.582;5.016;2022-10-31T18:02:43;101129.25;;;18.70;100.00
20752;BME280;10536;51.582;5.016;2022-10-31T18:07:58;101125.16;;;19.26;100.00
20752;BME280;10536;51.582;5.016;2022-10-31T18:13:12;101108.78;;;18.60;100.00
20752;BME280;10536;51.582;5.016;2022-10-31T18:18:26;101120.41;;;18.95;100.00
20752;BME280;10536;51.582;5.016;2022-10-31T18:23:40;101120.94;;;18.83;100.00
20752;BME280;10536;51.582;5.016;2022-10-31T18:28:52;101113.06;;;18.40;100.00
20752;BME280;10536;51.582;5.016;2022-10-31T18:34:04;101127.53;;;18.49;100.00
20752;BME280;10536;51.582;5.016;2022-10-31T18:39:14;101114.53;;;18.68;100.00
20752;BME280;10536;51.582;5.016;2022-10-31T18:44:25;101119.66;;;18.28;100.00
20752;BME280;10536;51.582;5.016;2022-10-31T18:49:41;101107.66;;;18.65;100.00
20752;BME280;10536;51.582;5.016;2022-10-31T18:54:56;101095.97;;;18.31;100.00
20752;BME280;10536;51.582;5.016;2022-10-31T19:00:12;101091.97;;;18.43;100.00
20752;BME280;10536;51.582;5.016;2022-10-31T19:05:23;101084.22;;;18.20;100.00
20752;BME280;10536;51.582;5.016;2022-10-31T19:10:36;101086.75;;;18.43;100.00
20752;BME280;10536;51.582;5.016;2022-10-31T19:15:44;101083.84;;;18.29;100.00
20752;BME280;10536;51.582;5.016;2022-10-31T19:20:56;101078.34;;;18.35;100.00
20752;BME280;10536;51.582;5.016;2022-10-31T19:26:01;101073.25;;;18.10;100.00
20752;BME280;10536;51.582;5.016;2022-10-31T19:31:09;101066.81;;;17.96;100.00
20752;BME280;10536;51.582;5.016;2022-10-31T19:36:18;101064.03;;;18.01;100.00
20752;BME280;10536;51.582;5.016;2022-10-31T19:41:29;101049.59;;;18.33;100.00
20752;BME280;10536;51.582;5.016;2022-10-31T19:46:41;101048.16;;;17.84;100.00
20752;BME280;10536;51.582;5.016;2022-10-31T19:51:54;101051.56;;;17.86;100.00
20752;BME280;10536;51.582;5.016;2022-10-31T19:57:08;101050.03;;;18.02;100.00
20752;BME280;10536;51.582;5.016;2022-10-31T20:15:38;101027.50;;;18.61;100.00
20752;BME280;10536;51.582;5.016;2022-10-31T20:21:12;101027.03;;;18.31;100.00
20752;BME280;10536;51.582;5.016;2022-10-31T20:26:20;101018.41;;;18.49;100.00
20752;BME280;10536;51.582;5.016;2022-10-31T20:31:35;101013.59;;;18.18;100.00
20752;BME280;10536;51.582;5.016;2022-10-31T20:36:50;101007.66;;;18.14;100.00
20752;BME280;10536;51.582;5.016;2022-10-31T20:42:02;101006.31;;;18.04;100.00
20752;BME280;10536;51.582;5.016;2022-10-31T20:47:14;100994.16;;;17.59;100.00
20752;BME280;10536;51.582;5.016;2022-10-31T20:52:25;100987.56;;;17.71;100.00
20752;BME280;10536;51.582;5.016;2022-10-31T20:57:39;100983.63;;;17.39;100.00
20752;BME280;10536;51.582;5.016;2022-10-31T21:02:55;100975.69;;;17.64;100.00
20752;BME280;10536;51.582;5.016;2022-10-31T21:08:09;100970.06;;;17.95;100.00
20752;BME280;10536;51.582;5.016;2022-10-31T21:13:23;100962.59;;;17.86;100.00
20752;BME280;10536;51.582;5.016;2022-10-31T21:18:29;100956.19;;;17.71;100.00
20752;BME280;10536;51.582;5.016;2022-10-31T21:23:37;100945.31;;;18.02;100.00
20752;BME280;10536;51.582;5.016;2022-10-31T21:28:49;100936.31;;;18.30;100.00
20752;BME280;10536;51.582;5.016;2022-10-31T21:34:03;100943.91;;;18.55;100.00
20752;BME280;10536;51.582;5.016;2022-10-31T21:39:41;100948.09;;;18.80;100.00
20752;BME280;10536;51.582;5.016;2022-10-31T21:44:50;100947.88;;;18.45;100.00
20752;BME280;10536;51.582;5.016;2022-10-31T21:50:01;100960.13;;;18.24;100.00
20752;BME280;10536;51.582;5.016;2022-10-31T21:55:15;100965.97;;;18.30;100.00
20752;BME280;10536;51.582;5.016;2022-10-31T22:00:26;100969.63;;;18.26;100.00
20752;BME280;10536;51.582;5.016;2022-10-31T22:05:35;100958.06;;;18.32;100.00
20752;BME280;10536;51.582;5.016;2022-10-31T22:10:47;100943.22;;;18.51;100.00
20752;BME280;10536;51.582;5.016;2022-10-31T22:15:58;100941.91;;;18.41;100.00
20752;BME280;10536;51.582;5.016;2022-10-31T22:21:11;100933.81;;;18.66;100.00
20752;BME280;10536;51.582;5.016;2022-10-31T22:26:22;100913.91;;;18.62;100.00
20752;BME280;10536;51.582;5.016;2022-10-31T22:31:32;100907.78;;;18.82;100.00
20752;BME280;10536;51.582;5.016;2022-10-31T22:36:43;100898.72;;;18.31;100.00
20752;BME280;10536;51.582;5.016;2022-10-31T22:41:56;100881.94;;;18.55;100.00
20752;BME280;10536;51.582;5.016;2022-10-31T22:47:10;100863.69;;;19.28;100.00
20752;BME280;10536;51.582;5.016;2022-10-31T22:52:24;100862.56;;;18.39;100.00
20752;BME280;10536;51.582;5.016;2022-10-31T22:57:35;100869.59;;;18.58;100.00
20752;BME280;10536;51.582;5.016;2022-10-31T23:02:47;100870.56;;;18.55;100.00
20752;BME280;10536;51.582;5.016;2022-10-31T23:08:00;100864.50;;;18.73;100.00
20752;BME280;10536;51.582;5.016;2022-10-31T23:13:13;100853.59;;;18.64;100.00
20752;BME280;10536;51.582;5.016;2022-10-31T23:18:36;100847.53;;;18.63;100.00
20752;BME280;10536;51.582;5.016;2022-10-31T23:23:45;100838.47;;;18.51;100.00
20752;BME280;10536;51.582;5.016;2022-10-31T23:28:57;100826.97;;;18.54;100.00
20752;BME280;10536;51.582;5.016;2022-10-31T23:34:08;100821.44;;;18.98;100.00
20752;BME280;10536;51.582;5.016;2022-10-31T23:39:22;100826.81;;;19.14;100.00
20752;BME280;10536;51.582;5.016;2022-10-31T23:44:34;100810.84;;;19.19;100.00
20752;BME280;10536;51.582;5.016;2022-10-31T23:49:47;100808.34;;;19.16;100.00
20752;BME280;10536;51.582;5.016;2022-10-31T23:54:56;100813.47;;;18.82;100.00
